createdAt,value
2022-09-15T00:00:27.984Z,0.90
2022-09-15T00:02:54.827Z,1.15
2022-09-15T00:05:21.595Z,1.30
2022-09-15T00:07:48.440Z,0.93
2022-09-15T00:10:15.298Z,0.70
2022-09-15T00:12:42.011Z,0.82
2022-09-15T00:15:09.290Z,0.80
2022-09-15T00:17:36.065Z,1.13
2022-09-15T00:20:06.158Z,0.70
2022-09-15T00:22:33.475Z,0.77
2022-09-15T00:25:00.405Z,1.55
2022-09-15T00:27:27.144Z,1.15
2022-09-15T00:29:53.814Z,0.70
2022-09-15T00:32:20.533Z,1.27
2022-09-15T00:34:49.649Z,1.00
2022-09-15T00:37:16.393Z,0.85
2022-09-15T00:39:43.385Z,0.90
2022-09-15T00:42:23.722Z,0.98
2022-09-15T00:44:59.575Z,0.85
2022-09-15T00:47:34.348Z,0.80
2022-09-15T00:50:16.326Z,0.80
2022-09-15T00:52:47.998Z,0.82
2022-09-15T00:55:47.467Z,0.90
2022-09-15T00:58:37.071Z,1.00
2022-09-15T01:01:07.624Z,1.00
2022-09-15T01:03:35.645Z,0.63
2022-09-15T01:06:10.433Z,0.82
2022-09-15T01:08:56.827Z,0.80
2022-09-15T01:11:23.706Z,1.42
2022-09-15T01:13:50.342Z,1.00
2022-09-15T01:16:35.581Z,1.45
2022-09-15T01:19:11.978Z,1.02
2022-09-15T01:22:03.683Z,0.80
2022-09-15T01:25:14.664Z,0.70
2022-09-15T01:28:09.144Z,0.77
2022-09-15T01:30:56.635Z,0.82
2022-09-15T01:33:41.227Z,1.05
2022-09-15T01:36:13.998Z,0.55
2022-09-15T01:38:52.855Z,0.95
2022-09-15T01:41:32.936Z,1.40
2022-09-15T01:44:06.518Z,0.80
2022-09-15T01:46:37.501Z,0.93
2022-09-15T01:49:06.850Z,0.93
2022-09-15T01:51:35.919Z,0.77
2022-09-15T01:54:05.613Z,1.08
2022-09-15T01:56:32.760Z,0.77
2022-09-15T01:58:59.704Z,0.55
2022-09-15T02:01:34.912Z,0.80
2022-09-15T02:04:12.733Z,0.95
2022-09-15T02:07:07.162Z,0.90
2022-09-15T02:09:40.211Z,1.02
2022-09-15T02:12:17.573Z,0.65
2022-09-15T02:15:15.089Z,0.98
2022-09-15T02:17:46.094Z,0.90
2022-09-15T02:20:25.092Z,0.88
2022-09-15T02:22:57.262Z,0.75
2022-09-15T02:25:32.062Z,0.80
2022-09-15T02:28:04.574Z,1.08
2022-09-15T02:30:36.214Z,1.40
2022-09-15T02:33:08.339Z,1.13
2022-09-15T02:35:36.939Z,0.82
2022-09-15T02:38:07.115Z,0.73
2022-09-15T02:40:33.983Z,0.80
2022-09-15T02:43:03.009Z,0.77
2022-09-15T02:45:31.243Z,1.35
2022-09-15T02:47:58.916Z,0.80
2022-09-15T02:50:26.854Z,0.70
2022-09-15T02:52:55.062Z,0.93
2022-09-15T02:55:22.867Z,1.02
2022-09-15T02:57:49.594Z,1.10
2022-09-15T03:00:18.692Z,0.77
2022-09-15T03:02:51.981Z,1.30
2022-09-15T03:05:21.542Z,0.65
2022-09-15T03:07:48.572Z,0.63
2022-09-15T03:10:16.199Z,0.73
2022-09-15T03:12:48.161Z,0.70
2022-09-15T03:15:17.700Z,0.90
2022-09-15T03:17:46.446Z,0.70
2022-09-15T03:20:16.918Z,1.02
2022-09-15T03:22:44.085Z,0.50
2022-09-15T03:25:11.443Z,0.90
2022-09-15T03:27:38.639Z,0.55
2022-09-15T03:30:06.998Z,0.80
2022-09-15T03:32:33.700Z,0.47
2022-09-15T03:35:00.595Z,0.95
2022-09-15T03:37:27.593Z,0.98
2022-09-15T03:39:54.390Z,0.85
2022-09-15T03:42:21.453Z,0.65
2022-09-15T03:44:48.252Z,0.55
2022-09-15T03:47:14.941Z,0.60
2022-09-15T03:49:41.761Z,0.70
2022-09-15T03:52:08.461Z,0.47
2022-09-15T03:54:35.551Z,0.50
2022-09-15T03:57:03.437Z,0.45
2022-09-15T03:59:30.168Z,0.98
2022-09-15T04:01:57.112Z,0.50
2022-09-15T04:04:24.067Z,0.43
2022-09-15T04:06:50.840Z,0.32
2022-09-15T04:09:20.271Z,0.50
2022-09-15T04:11:47.908Z,0.30
2022-09-15T04:14:14.710Z,0.43
2022-09-15T04:16:41.565Z,0.43
2022-09-15T04:19:08.335Z,0.80
2022-09-15T04:21:35.027Z,0.60
2022-09-15T04:24:04.706Z,1.10
2022-09-15T04:26:34.408Z,0.50
2022-09-15T04:29:04.625Z,0.60
2022-09-15T04:31:33.172Z,0.82
2022-09-15T04:34:00.037Z,0.60
2022-09-15T04:36:28.464Z,1.02
2022-09-15T04:38:56.215Z,0.57
2022-09-15T04:41:23.810Z,0.75
2022-09-15T04:43:50.572Z,0.55
2022-09-15T04:46:18.488Z,0.30
2022-09-15T04:48:49.006Z,0.55
2022-09-15T04:51:21.217Z,0.70
2022-09-15T04:53:48.208Z,0.57
2022-09-15T04:56:17.497Z,0.68
2022-09-15T04:59:00.921Z,0.50
2022-09-15T05:01:33.074Z,0.52
2022-09-15T05:04:03.585Z,0.70
2022-09-15T05:06:30.390Z,0.40
2022-09-15T05:08:58.088Z,0.30
2022-09-15T05:11:25.677Z,0.50
2022-09-15T05:13:52.780Z,0.60
2022-09-15T05:16:22.549Z,0.52
2022-09-15T05:18:50.715Z,0.60
2022-09-15T05:21:19.895Z,0.50
2022-09-15T05:23:47.090Z,0.98
2022-09-15T05:26:19.768Z,0.70
2022-09-15T05:28:46.978Z,1.15
2022-09-15T05:31:28.017Z,0.52
2022-09-15T05:33:55.255Z,0.65
2022-09-15T05:36:25.363Z,0.70
2022-09-15T05:38:58.564Z,0.70
2022-09-15T05:41:27.456Z,0.77
2022-09-15T05:43:59.798Z,1.30
2022-09-15T05:46:27.987Z,1.45
2022-09-15T05:48:56.978Z,0.50
2022-09-15T05:51:23.926Z,0.68
2022-09-15T05:53:51.021Z,0.50
2022-09-15T05:56:18.470Z,0.50
2022-09-15T05:58:46.902Z,0.50
2022-09-15T06:01:25.201Z,0.32
2022-09-15T06:03:52.856Z,0.63
2022-09-15T06:06:19.957Z,1.02
2022-09-15T06:08:54.053Z,0.75
2022-09-15T06:11:29.132Z,0.40
2022-09-15T06:13:58.898Z,0.70
2022-09-15T06:16:26.686Z,0.50
2022-09-15T06:18:54.234Z,0.80
2022-09-15T06:21:23.659Z,0.55
2022-09-15T06:23:58.895Z,0.60
2022-09-15T06:26:27.297Z,0.65
2022-09-15T06:29:01.889Z,0.60
2022-09-15T06:31:34.245Z,0.40
2022-09-15T06:34:02.446Z,0.57
2022-09-15T06:36:31.140Z,0.40
2022-09-15T06:38:58.880Z,0.57
2022-09-15T06:41:26.038Z,0.50
2022-09-15T06:43:53.128Z,0.60
2022-09-15T06:46:23.567Z,0.60
2022-09-15T06:48:51.911Z,0.60
2022-09-15T06:51:20.930Z,0.80
2022-09-15T06:53:47.918Z,0.40
2022-09-15T06:56:17.742Z,0.50
2022-09-15T06:58:45.744Z,0.65
2022-09-15T07:01:14.933Z,0.50
2022-09-15T07:03:43.954Z,0.68
2022-09-15T07:06:14.830Z,0.40
2022-09-15T07:08:41.909Z,0.35
2022-09-15T07:11:10.127Z,0.43
2022-09-15T07:13:37.286Z,0.32
2022-09-15T07:16:06.446Z,0.55
2022-09-15T07:18:33.734Z,0.50
2022-09-15T07:21:03.201Z,0.40
2022-09-15T07:23:30.227Z,0.45
2022-09-15T07:26:22.733Z,0.50
2022-09-15T07:28:54.672Z,0.30
2022-09-15T07:31:23.664Z,0.45
2022-09-15T07:33:50.824Z,0.50
2022-09-15T07:36:17.871Z,0.55
2022-09-15T07:38:46.083Z,0.60
2022-09-15T07:41:15.834Z,0.70
2022-09-15T07:43:50.632Z,0.60
2022-09-15T07:46:18.955Z,0.50
2022-09-15T07:48:47.315Z,0.55
2022-09-15T07:51:15.113Z,0.68
2022-09-15T07:53:43.150Z,0.65
2022-09-15T07:56:10.253Z,0.40
2022-09-15T07:58:37.039Z,0.38
2022-09-15T08:01:11.538Z,0.57
2022-09-15T08:03:46.476Z,0.40
2022-09-15T08:06:13.707Z,0.50
2022-09-15T08:08:41.299Z,0.57
2022-09-15T08:11:09.729Z,0.43
2022-09-15T08:13:37.198Z,0.47
2022-09-15T08:16:07.160Z,0.70
2022-09-15T08:18:34.542Z,0.50
2022-09-15T08:21:07.739Z,0.43
2022-09-15T08:23:34.599Z,0.60
2022-09-15T08:26:01.545Z,0.43
2022-09-15T08:28:28.461Z,0.40
2022-09-15T08:31:03.007Z,0.70
2022-09-15T08:33:32.208Z,0.32
2022-09-15T08:36:05.278Z,0.30
2022-09-15T08:38:32.690Z,0.63
2022-09-15T08:41:03.261Z,0.60
2022-09-15T08:43:36.011Z,0.52
2022-09-15T08:46:10.390Z,0.28
2022-09-15T08:48:43.844Z,0.43
2022-09-15T08:51:19.704Z,0.55
2022-09-15T08:53:54.349Z,0.50
2022-09-15T08:56:21.234Z,1.15
2022-09-15T08:58:48.683Z,0.40
2022-09-15T09:01:39.938Z,0.55
2022-09-15T09:04:24.699Z,0.50
2022-09-15T09:07:17.553Z,0.30
2022-09-15T09:10:15.437Z,0.30
2022-09-15T09:13:04.827Z,0.32
2022-09-15T09:15:48.683Z,0.40
2022-09-15T09:18:27.903Z,0.40
2022-09-15T09:21:23.657Z,0.30
2022-09-15T09:24:01.545Z,0.57
2022-09-15T09:26:31.497Z,0.50
2022-09-15T09:29:00.483Z,0.55
2022-09-15T09:31:28.850Z,0.40
2022-09-15T09:34:13.879Z,0.63
2022-09-15T09:36:40.624Z,0.60
2022-09-15T09:39:14.006Z,0.50
2022-09-15T09:41:42.124Z,0.50
2022-09-15T09:44:14.968Z,0.38
2022-09-15T09:46:42.487Z,0.32
2022-09-15T09:49:23.022Z,0.25
2022-09-15T09:51:59.890Z,0.30
2022-09-15T09:54:28.759Z,0.20
2022-09-15T09:56:57.583Z,0.20
2022-09-15T09:59:47.076Z,0.30
2022-09-15T10:02:27.321Z,0.20
2022-09-15T10:05:12.295Z,0.40
2022-09-15T10:07:45.636Z,0.30
2022-09-15T10:10:23.682Z,0.30
2022-09-15T10:12:55.496Z,0.35
2022-09-15T10:15:28.222Z,0.63
2022-09-15T10:17:56.696Z,0.47
2022-09-15T10:20:32.852Z,0.30
2022-09-15T10:23:27.544Z,0.50
2022-09-15T10:26:00.017Z,0.32
2022-09-15T10:28:28.075Z,0.20
2022-09-15T10:31:27.428Z,0.20
2022-09-15T10:33:54.240Z,0.25
2022-09-15T10:36:28.708Z,0.20
2022-09-15T10:39:00.938Z,0.88
2022-09-15T10:41:28.668Z,0.38
2022-09-15T10:44:20.738Z,0.43
2022-09-15T10:46:53.452Z,0.40
2022-09-15T10:49:38.063Z,0.30
2022-09-15T10:52:20.429Z,0.50
2022-09-15T10:55:06.648Z,0.28
2022-09-15T10:57:51.948Z,0.68
2022-09-15T11:00:23.374Z,0.38
2022-09-15T11:03:05.675Z,0.80
2022-09-15T11:05:39.308Z,0.63
2022-09-15T11:08:21.100Z,0.52
2022-09-15T11:11:02.952Z,0.60
2022-09-15T11:13:41.191Z,0.50
2022-09-15T11:16:28.926Z,0.65
2022-09-15T11:19:10.208Z,0.60
2022-09-15T11:21:55.995Z,0.90
2022-09-15T11:24:31.700Z,0.52
2022-09-15T11:27:06.636Z,0.47
2022-09-15T11:29:33.313Z,0.47
2022-09-15T11:32:21.258Z,0.90
2022-09-15T11:35:26.430Z,0.93
2022-09-15T11:37:56.928Z,0.68
2022-09-15T11:40:38.417Z,0.70
2022-09-15T11:43:46.978Z,1.00
2022-09-15T11:46:21.992Z,0.70
2022-09-15T11:49:12.208Z,0.70
2022-09-15T11:51:45.533Z,1.15
2022-09-15T11:54:31.485Z,0.70
2022-09-15T11:57:00.151Z,1.00
2022-09-15T11:59:44.116Z,0.80
2022-09-15T12:02:30.308Z,1.00
2022-09-15T12:05:11.586Z,0.88
2022-09-15T12:08:04.576Z,0.80
2022-09-15T12:10:40.473Z,1.38
2022-09-15T12:13:16.564Z,0.77
2022-09-15T12:15:45.318Z,0.70
2022-09-15T12:18:44.850Z,0.90
2022-09-15T12:21:20.735Z,0.80
2022-09-15T12:24:02.876Z,0.43
2022-09-15T12:26:33.350Z,1.15
2022-09-15T12:29:02.662Z,0.47
2022-09-15T12:31:38.340Z,0.85
2022-09-15T12:34:06.505Z,0.70
2022-09-15T12:36:41.339Z,0.93
2022-09-15T12:39:23.281Z,1.40
2022-09-15T12:42:10.201Z,0.82
2022-09-15T12:44:45.950Z,0.93
2022-09-15T12:47:38.759Z,0.88
2022-09-15T12:50:31.349Z,0.40
2022-09-15T12:53:01.907Z,0.43
2022-09-15T12:55:37.627Z,0.68
2022-09-15T12:58:10.727Z,0.60
2022-09-15T13:01:00.709Z,0.20
2022-09-15T13:03:28.783Z,0.45
2022-09-15T13:06:34.100Z,0.85
2022-09-15T13:09:06.420Z,0.57
2022-09-15T13:11:50.253Z,0.50
2022-09-15T13:14:26.655Z,0.85
2022-09-15T13:16:59.725Z,1.00
2022-09-15T13:19:41.523Z,0.60
2022-09-15T13:22:11.258Z,1.15
2022-09-15T13:24:56.564Z,0.65
2022-09-15T13:27:39.976Z,0.80
2022-09-15T13:30:22.174Z,0.60
2022-09-15T13:33:09.276Z,0.40
2022-09-15T13:36:20.696Z,0.82
2022-09-15T13:39:22.317Z,0.40
2022-09-15T13:42:13.785Z,0.57
2022-09-15T13:44:55.969Z,0.75
2022-09-15T13:47:31.891Z,0.80
2022-09-15T13:50:21.472Z,0.80
2022-09-15T13:53:20.651Z,0.88
2022-09-15T13:55:48.373Z,0.80
2022-09-15T14:01:07.548Z,0.60
2022-09-15T14:04:00.775Z,0.60
2022-09-15T14:06:33.763Z,0.60
2022-09-15T14:09:10.639Z,0.50
2022-09-15T14:11:38.695Z,0.63
2022-09-15T14:14:11.589Z,0.70
2022-09-15T14:16:39.785Z,0.70
2022-09-15T14:19:28.441Z,0.55
2022-09-15T14:21:58.447Z,0.60
2022-09-15T14:24:32.264Z,0.30
2022-09-15T14:27:07.399Z,0.60
2022-09-15T14:29:40.506Z,0.50
2022-09-15T14:32:13.987Z,0.90
2022-09-15T14:34:42.328Z,1.13
2022-09-15T14:37:19.942Z,1.50
2022-09-15T14:39:51.505Z,0.95
2022-09-15T14:42:29.650Z,1.08
2022-09-15T14:48:08.498Z,1.00
2022-09-15T14:50:35.641Z,1.27
2022-09-15T14:53:14.314Z,0.82
2022-09-15T14:55:55.683Z,0.65
2022-09-15T14:58:46.722Z,0.70
2022-09-15T15:01:27.494Z,0.70
2022-09-15T15:04:10.568Z,0.75
2022-09-15T15:06:55.580Z,0.45
2022-09-15T15:09:32.009Z,0.80
2022-09-15T15:12:04.477Z,1.35
2022-09-15T15:14:31.428Z,0.80
2022-09-15T15:17:02.096Z,0.80
2022-09-15T15:19:38.912Z,0.90
2022-09-15T15:22:20.075Z,1.92
2022-09-15T15:24:52.577Z,1.15
2022-09-15T15:27:34.950Z,1.17
2022-09-15T15:30:30.538Z,0.85
2022-09-15T15:33:06.973Z,0.75
2022-09-15T15:35:35.835Z,1.10
2022-09-15T15:38:06.920Z,1.08
2022-09-15T15:40:37.571Z,1.08
2022-09-15T15:43:08.078Z,0.95
2022-09-15T15:45:47.256Z,1.00
2022-09-15T15:48:13.996Z,1.25
2022-09-15T15:50:40.701Z,1.05
2022-09-15T15:53:07.439Z,1.42
2022-09-15T15:55:42.024Z,1.25
2022-09-15T15:58:12.962Z,1.38
2022-09-15T16:00:53.935Z,1.58
2022-09-15T16:03:21.792Z,0.93
2022-09-15T16:05:51.528Z,1.65
2022-09-15T16:08:33.082Z,1.38
2022-09-15T16:13:30.118Z,1.65
2022-09-15T16:16:00.242Z,1.48
2022-09-15T16:18:28.348Z,1.17
2022-09-15T16:20:55.176Z,1.40
2022-09-15T16:23:22.954Z,1.55
2022-09-15T16:26:02.476Z,1.45
2022-09-15T16:28:29.818Z,2.15
2022-09-15T16:30:57.140Z,1.58
2022-09-15T16:33:25.103Z,1.73
2022-09-15T16:36:09.253Z,1.65
2022-09-15T16:38:36.326Z,1.50
2022-09-15T16:41:06.176Z,2.28
2022-09-15T16:43:32.907Z,1.50
2022-09-15T16:45:59.624Z,1.27
2022-09-15T16:48:27.300Z,2.13
2022-09-15T16:51:17.218Z,0.90
2022-09-15T16:53:41.297Z,1.30
2022-09-15T16:56:11.620Z,1.52
2022-09-15T16:58:38.886Z,1.40
2022-09-15T17:01:06.594Z,1.15
2022-09-15T17:03:33.818Z,1.25
2022-09-15T17:06:03.035Z,1.20
2022-09-15T17:08:33.629Z,2.17
2022-09-15T17:11:02.848Z,2.30
2022-09-15T17:13:31.797Z,1.30
2022-09-15T17:16:00.409Z,1.40
2022-09-15T17:18:28.178Z,1.13
2022-09-15T17:20:54.902Z,1.55
2022-09-15T17:23:31.741Z,1.27
2022-09-15T17:26:01.161Z,1.75
2022-09-15T17:28:33.549Z,1.23
2022-09-15T17:31:02.978Z,1.20
2022-09-15T17:33:31.231Z,1.30
2022-09-15T17:35:58.337Z,1.20
2022-09-15T17:38:25.619Z,1.60
2022-09-15T17:40:52.889Z,1.27
2022-09-15T17:43:22.059Z,1.08
2022-09-15T17:45:50.029Z,1.42
2022-09-15T17:48:17.372Z,1.15
2022-09-15T17:50:45.389Z,2.10
2022-09-15T17:53:23.528Z,0.93
2022-09-15T17:55:51.238Z,1.02
2022-09-15T17:58:18.637Z,0.90
2022-09-15T18:00:46.411Z,1.58
2022-09-15T18:03:35.991Z,1.73
2022-09-15T18:06:07.006Z,1.75
2022-09-15T18:08:34.198Z,1.48
2022-09-15T18:11:01.745Z,1.83
2022-09-15T18:13:32.318Z,1.70
2022-09-15T18:16:06.763Z,1.33
2022-09-15T18:18:34.134Z,1.48
2022-09-15T18:21:01.169Z,1.48
2022-09-15T18:23:29.533Z,0.90
2022-09-15T18:25:56.785Z,0.77
2022-09-15T18:28:23.743Z,1.00
2022-09-15T18:30:51.606Z,1.50
2022-09-15T18:33:25.795Z,1.27
2022-09-15T18:35:55.871Z,1.17
2022-09-15T18:38:23.496Z,1.00
2022-09-15T18:40:53.571Z,0.80
2022-09-15T18:43:21.843Z,1.20
2022-09-15T18:45:49.214Z,0.98
2022-09-15T18:48:16.335Z,1.23
2022-09-15T18:50:44.597Z,1.40
2022-09-15T18:53:11.724Z,1.17
2022-09-15T18:55:41.921Z,1.48
2022-09-15T18:58:09.500Z,0.82
2022-09-15T19:00:36.416Z,0.95
2022-09-15T19:03:05.591Z,0.80
2022-09-15T19:05:33.220Z,1.45
2022-09-15T19:08:00.493Z,1.05
2022-09-15T19:10:27.441Z,1.25
2022-09-15T19:12:54.747Z,1.10
2022-09-15T19:15:24.592Z,1.75
2022-09-15T19:17:51.649Z,0.77
2022-09-15T19:20:18.486Z,0.90
2022-09-15T19:22:46.111Z,1.00
2022-09-15T19:25:13.515Z,1.02
2022-09-15T19:27:40.294Z,0.73
2022-09-15T19:30:10.083Z,0.80
2022-09-15T19:32:38.428Z,0.90
2022-09-15T19:35:06.253Z,0.80
2022-09-15T19:37:36.981Z,0.80
2022-09-15T19:40:08.665Z,0.88
2022-09-15T19:42:36.431Z,1.70
2022-09-15T19:45:03.547Z,0.85
2022-09-15T19:47:30.368Z,0.57
2022-09-15T19:49:57.052Z,1.00
2022-09-15T19:52:23.868Z,1.05
2022-09-15T19:54:50.496Z,0.80
2022-09-15T19:57:17.280Z,0.60
2022-09-15T19:59:44.763Z,0.88
2022-09-15T20:02:12.085Z,0.65
2022-09-15T20:04:39.908Z,0.45
2022-09-15T20:07:06.926Z,0.70
2022-09-15T20:09:33.940Z,0.93
2022-09-15T20:12:03.315Z,0.70
2022-09-15T20:14:31.096Z,0.73
2022-09-15T20:17:00.990Z,1.10
2022-09-15T20:19:28.746Z,0.57
2022-09-15T20:21:55.687Z,0.63
2022-09-15T20:24:23.935Z,0.68
2022-09-15T20:26:51.489Z,0.90
2022-09-15T20:29:18.779Z,0.60
2022-09-15T20:31:46.261Z,0.50
2022-09-15T20:34:13.050Z,0.80
2022-09-15T20:36:40.532Z,0.80
2022-09-15T20:39:12.833Z,0.52
2022-09-15T20:41:41.406Z,0.60
2022-09-15T20:44:09.535Z,0.60
2022-09-15T20:46:37.090Z,0.75
2022-09-15T20:49:04.750Z,0.70
2022-09-15T20:51:33.525Z,0.40
2022-09-15T20:54:03.420Z,0.43
2022-09-15T20:56:35.066Z,1.00
2022-09-15T20:59:04.394Z,0.47
2022-09-15T21:01:39.327Z,0.90
2022-09-15T21:04:08.457Z,0.63
2022-09-15T21:06:35.930Z,0.50
2022-09-15T21:09:03.787Z,0.50
2022-09-15T21:11:31.022Z,1.05
2022-09-15T21:13:58.743Z,0.40
2022-09-15T21:16:28.044Z,0.63
2022-09-15T21:18:57.006Z,0.60
2022-09-15T21:21:30.101Z,0.80
2022-09-15T21:24:03.886Z,0.70
2022-09-15T21:26:56.803Z,0.60
2022-09-15T21:29:24.030Z,1.15
2022-09-15T21:31:50.918Z,0.40
2022-09-15T21:34:17.681Z,0.40
2022-09-15T21:36:44.363Z,0.47
2022-09-15T21:39:11.196Z,0.45
2022-09-15T21:41:38.279Z,0.68
2022-09-15T21:44:05.073Z,0.50
2022-09-15T21:46:31.992Z,0.40
2022-09-15T21:49:00.207Z,0.57
2022-09-15T21:51:28.682Z,0.30
2022-09-15T21:53:57.426Z,0.63
2022-09-15T21:56:25.585Z,0.50
2022-09-15T21:58:52.418Z,0.38
2022-09-15T22:01:22.773Z,1.35
2022-09-15T22:03:55.549Z,0.47
2022-09-15T22:06:30.147Z,0.90
2022-09-15T22:08:57.681Z,0.70
2022-09-15T22:11:25.572Z,0.50
2022-09-15T22:13:52.363Z,0.50
2022-09-15T22:16:21.446Z,0.40
2022-09-15T22:18:48.848Z,0.25
2022-09-15T22:21:19.823Z,0.47
2022-09-15T22:23:48.330Z,0.50
2022-09-15T22:26:20.578Z,0.40
2022-09-15T22:28:47.657Z,0.40
2022-09-15T22:31:16.593Z,0.60
2022-09-15T22:33:43.888Z,0.20
2022-09-15T22:39:14.210Z,0.43
2022-09-15T22:41:41.004Z,0.47
2022-09-15T22:44:17.958Z,0.38
2022-09-15T22:46:44.696Z,0.40
2022-09-15T22:49:11.653Z,0.57
2022-09-15T22:51:38.443Z,0.60
2022-09-15T22:54:05.365Z,0.57
2022-09-15T22:56:32.172Z,0.60
2022-09-15T22:58:59.243Z,0.50
2022-09-15T23:01:28.796Z,0.98
2022-09-15T23:04:01.252Z,0.57
2022-09-15T23:06:30.877Z,0.38
2022-09-15T23:08:59.729Z,0.45
2022-09-15T23:11:28.552Z,0.32
2022-09-15T23:13:56.339Z,0.55
2022-09-15T23:16:24.300Z,0.55
2022-09-15T23:18:51.601Z,0.32
2022-09-15T23:21:18.958Z,0.88
2022-09-15T23:23:47.675Z,0.63
2022-09-15T23:26:16.622Z,0.30
2022-09-15T23:28:43.508Z,0.30
2022-09-15T23:31:12.864Z,0.50
2022-09-15T23:33:40.004Z,0.63
2022-09-15T23:36:09.780Z,0.60
2022-09-15T23:38:41.539Z,0.50
2022-09-15T23:41:09.926Z,0.47
2022-09-15T23:43:36.922Z,0.30
2022-09-15T23:46:04.466Z,0.80
2022-09-15T23:48:32.537Z,0.60
2022-09-15T23:50:59.530Z,0.30
2022-09-15T23:53:26.331Z,0.60
2022-09-15T23:55:52.999Z,0.50
2022-09-15T23:58:19.840Z,0.50
